sensor_id;sensor_type;location;lat;lon;timestamp;P1;durP1;ratioP1;P2;durP2;ratioP2
60352;SDS011;46196;52.970;6.954;2023-05-07T00:00:00;50.00;;;24.70;;
60352;SDS011;46196;52.970;6.954;2023-05-07T00:02:26;45.33;;;22.25;;
60352;SDS011;46196;52.970;6.954;2023-05-07T00:04:51;54.80;;;24.17;;
60352;SDS011;46196;52.970;6.954;2023-05-07T00:07:17;48.58;;;22.67;;
60352;SDS011;46196;52.970;6.954;2023-05-07T00:09:43;49.15;;;23.55;;
60352;SDS011;46196;52.970;6.954;2023-05-07T00:12:09;55.65;;;24.08;;
60352;SDS011;46196;52.970;6.954;2023-05-07T00:14:35;51.47;;;23.50;;
60352;SDS011;46196;52.970;6.954;2023-05-07T00:17:01;51.10;;;24.52;;
60352;SDS011;46196;52.970;6.954;2023-05-07T00:19:26;44.95;;;23.95;;
60352;SDS011;46196;52.970;6.954;2023-05-07T00:21:52;54.55;;;25.60;;
60352;SDS011;46196;52.970;6.954;2023-05-07T00:24:19;52.13;;;24.58;;
60352;SDS011;46196;52.970;6.954;2023-05-07T00:26:44;58.17;;;25.33;;
60352;SDS011;46196;52.970;6.954;2023-05-07T00:29:11;51.22;;;24.08;;
60352;SDS011;46196;52.970;6.954;2023-05-07T00:31:37;56.35;;;25.52;;
60352;SDS011;46196;52.970;6.954;2023-05-07T00:34:03;50.60;;;26.10;;
60352;SDS011;46196;52.970;6.954;2023-05-07T00:36:29;55.50;;;25.83;;
60352;SDS011;46196;52.970;6.954;2023-05-07T00:38:56;59.00;;;26.58;;
60352;SDS011;46196;52.970;6.954;2023-05-07T00:41:24;55.00;;;24.40;;
60352;SDS011;46196;52.970;6.954;2023-05-07T00:43:49;49.30;;;24.17;;
60352;SDS011;46196;52.970;6.954;2023-05-07T00:46:16;57.65;;;25.80;;
60352;SDS011;46196;52.970;6.954;2023-05-07T00:48:42;54.97;;;25.02;;
60352;SDS011;46196;52.970;6.954;2023-05-07T00:51:09;48.38;;;24.35;;
60352;SDS011;46196;52.970;6.954;2023-05-07T00:53:36;45.60;;;25.40;;
60352;SDS011;46196;52.970;6.954;2023-05-07T00:56:02;50.80;;;24.58;;
60352;SDS011;46196;52.970;6.954;2023-05-07T00:58:28;58.28;;;27.35;;
60352;SDS011;46196;52.970;6.954;2023-05-07T01:00:55;56.83;;;26.17;;
60352;SDS011;46196;52.970;6.954;2023-05-07T01:03:21;61.30;;;27.27;;
60352;SDS011;46196;52.970;6.954;2023-05-07T01:05:46;55.90;;;26.55;;
60352;SDS011;46196;52.970;6.954;2023-05-07T01:08:13;58.28;;;26.90;;
60352;SDS011;46196;52.970;6.954;2023-05-07T01:10:40;55.22;;;26.98;;
60352;SDS011;46196;52.970;6.954;2023-05-07T01:13:08;57.97;;;25.10;;
60352;SDS011;46196;52.970;6.954;2023-05-07T01:15:35;61.22;;;28.38;;
60352;SDS011;46196;52.970;6.954;2023-05-07T01:18:02;59.30;;;26.60;;
60352;SDS011;46196;52.970;6.954;2023-05-07T01:20:28;60.40;;;25.83;;
60352;SDS011;46196;52.970;6.954;2023-05-07T01:22:53;61.35;;;27.23;;
60352;SDS011;46196;52.970;6.954;2023-05-07T01:25:20;65.80;;;28.27;;
60352;SDS011;46196;52.970;6.954;2023-05-07T01:27:46;62.15;;;28.20;;
60352;SDS011;46196;52.970;6.954;2023-05-07T01:30:12;68.82;;;29.05;;
60352;SDS011;46196;52.970;6.954;2023-05-07T01:32:39;63.38;;;28.10;;
60352;SDS011;46196;52.970;6.954;2023-05-07T01:35:07;64.05;;;27.90;;
60352;SDS011;46196;52.970;6.954;2023-05-07T01:37:36;70.22;;;29.80;;
60352;SDS011;46196;52.970;6.954;2023-05-07T01:40:03;70.35;;;29.17;;
60352;SDS011;46196;52.970;6.954;2023-05-07T01:42:30;64.50;;;29.30;;
60352;SDS011;46196;52.970;6.954;2023-05-07T01:44:56;82.93;;;32.03;;
60352;SDS011;46196;52.970;6.954;2023-05-07T01:47:23;71.07;;;32.60;;
60352;SDS011;46196;52.970;6.954;2023-05-07T01:49:50;83.18;;;32.03;;
60352;SDS011;46196;52.970;6.954;2023-05-07T01:52:15;77.70;;;31.08;;
60352;SDS011;46196;52.970;6.954;2023-05-07T01:54:41;72.40;;;31.42;;
60352;SDS011;46196;52.970;6.954;2023-05-07T01:57:07;76.85;;;31.15;;
60352;SDS011;46196;52.970;6.954;2023-05-07T01:59:33;80.72;;;31.80;;
60352;SDS011;46196;52.970;6.954;2023-05-07T02:01:59;86.13;;;33.38;;
60352;SDS011;46196;52.970;6.954;2023-05-07T02:04:25;81.82;;;32.72;;
60352;SDS011;46196;52.970;6.954;2023-05-07T02:06:51;88.97;;;34.42;;
60352;SDS011;46196;52.970;6.954;2023-05-07T02:09:18;81.93;;;34.38;;
60352;SDS011;46196;52.970;6.954;2023-05-07T02:11:44;88.05;;;35.10;;
60352;SDS011;46196;52.970;6.954;2023-05-07T02:14:10;88.93;;;34.58;;
60352;SDS011;46196;52.970;6.954;2023-05-07T02:16:36;88.40;;;34.53;;
60352;SDS011;46196;52.970;6.954;2023-05-07T02:19:01;87.93;;;33.95;;
60352;SDS011;46196;52.970;6.954;2023-05-07T02:21:27;89.78;;;33.72;;
60352;SDS011;46196;52.970;6.954;2023-05-07T02:23:53;90.32;;;34.08;;
60352;SDS011;46196;52.970;6.954;2023-05-07T02:26:19;84.25;;;33.38;;
60352;SDS011;46196;52.970;6.954;2023-05-07T02:28:44;82.85;;;34.05;;
60352;SDS011;46196;52.970;6.954;2023-05-07T02:31:10;96.03;;;34.85;;
60352;SDS011;46196;52.970;6.954;2023-05-07T02:33:36;90.75;;;35.35;;
60352;SDS011;46196;52.970;6.954;2023-05-07T02:36:11;82.57;;;33.60;;
60352;SDS011;46196;52.970;6.954;2023-05-07T02:38:37;82.00;;;32.72;;
60352;SDS011;46196;52.970;6.954;2023-05-07T02:41:03;89.80;;;35.20;;
60352;SDS011;46196;52.970;6.954;2023-05-07T02:43:29;97.00;;;36.00;;
60352;SDS011;46196;52.970;6.954;2023-05-07T02:46:04;91.32;;;35.10;;
60352;SDS011;46196;52.970;6.954;2023-05-07T02:48:31;95.30;;;36.75;;
60352;SDS011;46196;52.970;6.954;2023-05-07T02:50:57;92.30;;;35.30;;
60352;SDS011;46196;52.970;6.954;2023-05-07T02:53:24;97.72;;;34.35;;
60352;SDS011;46196;52.970;6.954;2023-05-07T02:55:55;94.80;;;36.70;;
60352;SDS011;46196;52.970;6.954;2023-05-07T02:58:22;96.32;;;36.20;;
60352;SDS011;46196;52.970;6.954;2023-05-07T03:00:48;101.00;;;36.92;;
60352;SDS011;46196;52.970;6.954;2023-05-07T03:03:14;96.53;;;36.63;;
60352;SDS011;46196;52.970;6.954;2023-05-07T03:05:40;98.05;;;37.10;;
60352;SDS011;46196;52.970;6.954;2023-05-07T03:08:06;84.10;;;33.05;;
60352;SDS011;46196;52.970;6.954;2023-05-07T03:10:32;96.78;;;37.15;;
60352;SDS011;46196;52.970;6.954;2023-05-07T03:12:57;96.18;;;38.47;;
60352;SDS011;46196;52.970;6.954;2023-05-07T03:15:23;100.75;;;37.38;;
60352;SDS011;46196;52.970;6.954;2023-05-07T03:17:48;88.88;;;34.90;;
60352;SDS011;46196;52.970;6.954;2023-05-07T03:20:14;89.68;;;33.90;;
60352;SDS011;46196;52.970;6.954;2023-05-07T03:22:40;87.00;;;35.97;;
60352;SDS011;46196;52.970;6.954;2023-05-07T03:25:06;85.25;;;32.97;;
60352;SDS011;46196;52.970;6.954;2023-05-07T03:27:32;88.50;;;34.08;;
60352;SDS011;46196;52.970;6.954;2023-05-07T03:29:58;82.57;;;32.88;;
60352;SDS011;46196;52.970;6.954;2023-05-07T03:32:23;87.00;;;34.45;;
60352;SDS011;46196;52.970;6.954;2023-05-07T03:34:49;86.25;;;34.50;;
60352;SDS011;46196;52.970;6.954;2023-05-07T03:37:15;85.93;;;32.65;;
60352;SDS011;46196;52.970;6.954;2023-05-07T03:39:41;94.90;;;34.42;;
60352;SDS011;46196;52.970;6.954;2023-05-07T03:42:07;91.13;;;34.65;;
60352;SDS011;46196;52.970;6.954;2023-05-07T03:44:32;84.80;;;32.67;;
60352;SDS011;46196;52.970;6.954;2023-05-07T03:46:58;87.82;;;31.90;;
60352;SDS011;46196;52.970;6.954;2023-05-07T03:49:23;81.18;;;31.95;;
60352;SDS011;46196;52.970;6.954;2023-05-07T03:51:49;80.47;;;33.67;;
60352;SDS011;46196;52.970;6.954;2023-05-07T03:54:15;79.70;;;32.50;;
60352;SDS011;46196;52.970;6.954;2023-05-07T03:56:41;77.13;;;32.95;;
60352;SDS011;46196;52.970;6.954;2023-05-07T03:59:07;79.70;;;33.47;;
60352;SDS011;46196;52.970;6.954;2023-05-07T04:01:33;83.28;;;32.55;;
60352;SDS011;46196;52.970;6.954;2023-05-07T04:03:58;78.80;;;31.65;;
60352;SDS011;46196;52.970;6.954;2023-05-07T04:06:24;76.15;;;29.83;;
60352;SDS011;46196;52.970;6.954;2023-05-07T04:08:50;76.57;;;30.20;;
60352;SDS011;46196;52.970;6.954;2023-05-07T04:11:16;76.13;;;31.35;;
60352;SDS011;46196;52.970;6.954;2023-05-07T04:13:42;64.68;;;28.73;;
60352;SDS011;46196;52.970;6.954;2023-05-07T04:16:08;70.45;;;29.55;;
60352;SDS011;46196;52.970;6.954;2023-05-07T04:18:34;73.50;;;30.48;;
60352;SDS011;46196;52.970;6.954;2023-05-07T04:20:59;69.15;;;30.67;;
60352;SDS011;46196;52.970;6.954;2023-05-07T04:23:25;77.30;;;32.22;;
60352;SDS011;46196;52.970;6.954;2023-05-07T04:25:51;67.95;;;29.40;;
60352;SDS011;46196;52.970;6.954;2023-05-07T04:28:16;72.20;;;30.30;;
60352;SDS011;46196;52.970;6.954;2023-05-07T04:30:43;71.88;;;30.77;;
60352;SDS011;46196;52.970;6.954;2023-05-07T04:33:08;69.97;;;30.40;;
60352;SDS011;46196;52.970;6.954;2023-05-07T04:35:34;66.78;;;29.30;;
60352;SDS011;46196;52.970;6.954;2023-05-07T04:38:00;66.38;;;28.35;;
60352;SDS011;46196;52.970;6.954;2023-05-07T04:40:26;68.63;;;29.10;;
60352;SDS011;46196;52.970;6.954;2023-05-07T04:42:52;68.97;;;29.08;;
60352;SDS011;46196;52.970;6.954;2023-05-07T04:45:18;71.30;;;29.58;;
60352;SDS011;46196;52.970;6.954;2023-05-07T04:47:45;62.85;;;28.27;;
60352;SDS011;46196;52.970;6.954;2023-05-07T04:50:10;71.05;;;30.60;;
60352;SDS011;46196;52.970;6.954;2023-05-07T04:52:36;70.25;;;29.33;;
60352;SDS011;46196;52.970;6.954;2023-05-07T04:55:02;68.30;;;28.92;;
60352;SDS011;46196;52.970;6.954;2023-05-07T04:57:28;66.28;;;28.17;;
60352;SDS011;46196;52.970;6.954;2023-05-07T04:59:53;65.15;;;28.63;;
60352;SDS011;46196;52.970;6.954;2023-05-07T05:02:19;59.28;;;28.05;;
60352;SDS011;46196;52.970;6.954;2023-05-07T05:04:45;70.50;;;28.15;;
60352;SDS011;46196;52.970;6.954;2023-05-07T05:07:11;59.70;;;26.02;;
60352;SDS011;46196;52.970;6.954;2023-05-07T05:09:36;66.10;;;27.77;;
60352;SDS011;46196;52.970;6.954;2023-05-07T05:12:02;61.40;;;27.85;;
60352;SDS011;46196;52.970;6.954;2023-05-07T05:14:28;60.50;;;27.95;;
60352;SDS011;46196;52.970;6.954;2023-05-07T05:16:54;60.60;;;26.33;;
60352;SDS011;46196;52.970;6.954;2023-05-07T05:19:20;60.80;;;27.75;;
60352;SDS011;46196;52.970;6.954;2023-05-07T05:21:46;59.60;;;26.73;;
60352;SDS011;46196;52.970;6.954;2023-05-07T05:24:11;60.70;;;27.83;;
60352;SDS011;46196;52.970;6.954;2023-05-07T05:26:37;56.97;;;26.75;;
60352;SDS011;46196;52.970;6.954;2023-05-07T05:29:03;57.80;;;24.77;;
60352;SDS011;46196;52.970;6.954;2023-05-07T05:31:29;60.85;;;27.30;;
60352;SDS011;46196;52.970;6.954;2023-05-07T05:33:55;64.50;;;27.02;;
60352;SDS011;46196;52.970;6.954;2023-05-07T05:36:20;63.47;;;27.58;;
60352;SDS011;46196;52.970;6.954;2023-05-07T05:38:46;59.95;;;26.85;;
60352;SDS011;46196;52.970;6.954;2023-05-07T05:41:12;59.13;;;26.83;;
60352;SDS011;46196;52.970;6.954;2023-05-07T05:43:37;59.38;;;26.40;;
60352;SDS011;46196;52.970;6.954;2023-05-07T05:46:03;63.72;;;26.98;;
60352;SDS011;46196;52.970;6.954;2023-05-07T05:48:29;60.03;;;26.95;;
60352;SDS011;46196;52.970;6.954;2023-05-07T05:50:55;67.07;;;28.00;;
60352;SDS011;46196;52.970;6.954;2023-05-07T05:53:21;59.13;;;26.60;;
60352;SDS011;46196;52.970;6.954;2023-05-07T05:55:46;67.93;;;27.08;;
60352;SDS011;46196;52.970;6.954;2023-05-07T05:58:12;55.08;;;25.85;;
60352;SDS011;46196;52.970;6.954;2023-05-07T06:00:40;61.10;;;26.25;;
60352;SDS011;46196;52.970;6.954;2023-05-07T06:03:05;61.70;;;28.70;;
60352;SDS011;46196;52.970;6.954;2023-05-07T06:05:31;63.35;;;28.15;;
60352;SDS011;46196;52.970;6.954;2023-05-07T06:07:57;59.20;;;25.52;;
60352;SDS011;46196;52.970;6.954;2023-05-07T06:10:22;58.50;;;27.40;;
60352;SDS011;46196;52.970;6.954;2023-05-07T06:12:49;60.50;;;27.73;;
60352;SDS011;46196;52.970;6.954;2023-05-07T06:15:15;62.65;;;27.33;;
60352;SDS011;46196;52.970;6.954;2023-05-07T06:17:40;61.35;;;27.45;;
60352;SDS011;46196;52.970;6.954;2023-05-07T06:20:06;61.20;;;27.45;;
60352;SDS011;46196;52.970;6.954;2023-05-07T06:22:32;60.22;;;26.90;;
60352;SDS011;46196;52.970;6.954;2023-05-07T06:24:58;64.07;;;27.15;;
60352;SDS011;46196;52.970;6.954;2023-05-07T06:27:24;61.90;;;27.50;;
60352;SDS011;46196;52.970;6.954;2023-05-07T06:29:50;62.03;;;27.15;;
60352;SDS011;46196;52.970;6.954;2023-05-07T06:32:15;69.45;;;28.17;;
60352;SDS011;46196;52.970;6.954;2023-05-07T06:34:42;60.92;;;25.83;;
60352;SDS011;46196;52.970;6.954;2023-05-07T06:37:08;60.50;;;27.55;;
60352;SDS011;46196;52.970;6.954;2023-05-07T06:39:34;59.25;;;26.17;;
60352;SDS011;46196;52.970;6.954;2023-05-07T06:42:00;61.00;;;26.75;;
60352;SDS011;46196;52.970;6.954;2023-05-07T06:44:26;59.70;;;27.65;;
60352;SDS011;46196;52.970;6.954;2023-05-07T06:46:52;62.53;;;27.67;;
60352;SDS011;46196;52.970;6.954;2023-05-07T06:49:18;66.28;;;27.58;;
60352;SDS011;46196;52.970;6.954;2023-05-07T06:51:44;60.33;;;28.35;;
60352;SDS011;46196;52.970;6.954;2023-05-07T06:54:09;60.72;;;25.98;;
60352;SDS011;46196;52.970;6.954;2023-05-07T06:56:35;61.55;;;26.08;;
60352;SDS011;46196;52.970;6.954;2023-05-07T06:59:01;59.80;;;26.52;;
60352;SDS011;46196;52.970;6.954;2023-05-07T07:01:27;63.38;;;27.00;;
60352;SDS011;46196;52.970;6.954;2023-05-07T07:03:54;62.47;;;26.60;;
60352;SDS011;46196;52.970;6.954;2023-05-07T07:06:19;65.65;;;26.83;;
60352;SDS011;46196;52.970;6.954;2023-05-07T07:08:45;59.33;;;25.65;;
60352;SDS011;46196;52.970;6.954;2023-05-07T07:11:11;64.25;;;28.23;;
60352;SDS011;46196;52.970;6.954;2023-05-07T07:13:37;58.15;;;27.27;;
60352;SDS011;46196;52.970;6.954;2023-05-07T07:16:03;63.78;;;27.83;;
60352;SDS011;46196;52.970;6.954;2023-05-07T07:18:28;62.20;;;28.15;;
60352;SDS011;46196;52.970;6.954;2023-05-07T07:20:54;65.60;;;27.15;;
60352;SDS011;46196;52.970;6.954;2023-05-07T07:23:20;72.28;;;29.30;;
60352;SDS011;46196;52.970;6.954;2023-05-07T07:25:45;70.57;;;27.23;;
60352;SDS011;46196;52.970;6.954;2023-05-07T07:28:11;69.47;;;29.58;;
60352;SDS011;46196;52.970;6.954;2023-05-07T07:30:37;68.72;;;28.70;;
60352;SDS011;46196;52.970;6.954;2023-05-07T07:33:04;68.05;;;29.08;;
60352;SDS011;46196;52.970;6.954;2023-05-07T07:35:30;67.32;;;29.05;;
60352;SDS011;46196;52.970;6.954;2023-05-07T07:37:56;61.70;;;26.75;;
60352;SDS011;46196;52.970;6.954;2023-05-07T07:40:22;64.65;;;27.67;;
60352;SDS011;46196;52.970;6.954;2023-05-07T07:42:48;62.67;;;28.15;;
60352;SDS011;46196;52.970;6.954;2023-05-07T07:45:14;60.78;;;27.95;;
60352;SDS011;46196;52.970;6.954;2023-05-07T07:47:40;70.00;;;27.75;;
60352;SDS011;46196;52.970;6.954;2023-05-07T07:50:06;59.83;;;27.48;;
60352;SDS011;46196;52.970;6.954;2023-05-07T07:52:32;62.63;;;26.35;;
60352;SDS011;46196;52.970;6.954;2023-05-07T07:54:58;60.72;;;27.85;;
60352;SDS011;46196;52.970;6.954;2023-05-07T07:57:24;56.30;;;25.38;;
60352;SDS011;46196;52.970;6.954;2023-05-07T07:59:49;52.88;;;25.05;;
60352;SDS011;46196;52.970;6.954;2023-05-07T08:02:15;55.47;;;26.02;;
60352;SDS011;46196;52.970;6.954;2023-05-07T08:04:41;51.20;;;24.33;;
60352;SDS011;46196;52.970;6.954;2023-05-07T08:07:09;48.20;;;24.70;;
60352;SDS011;46196;52.970;6.954;2023-05-07T08:09:35;51.30;;;25.70;;
60352;SDS011;46196;52.970;6.954;2023-05-07T08:12:04;53.28;;;25.45;;
60352;SDS011;46196;52.970;6.954;2023-05-07T08:14:31;56.22;;;27.27;;
60352;SDS011;46196;52.970;6.954;2023-05-07T08:16:56;49.75;;;26.20;;
60352;SDS011;46196;52.970;6.954;2023-05-07T08:19:22;56.53;;;25.52;;
60352;SDS011;46196;52.970;6.954;2023-05-07T08:21:48;55.45;;;25.92;;
60352;SDS011;46196;52.970;6.954;2023-05-07T08:24:14;51.60;;;25.17;;
60352;SDS011;46196;52.970;6.954;2023-05-07T08:26:40;46.67;;;23.10;;
60352;SDS011;46196;52.970;6.954;2023-05-07T08:29:06;50.40;;;23.70;;
60352;SDS011;46196;52.970;6.954;2023-05-07T08:31:32;51.20;;;24.85;;
60352;SDS011;46196;52.970;6.954;2023-05-07T08:33:58;56.08;;;27.65;;
60352;SDS011;46196;52.970;6.954;2023-05-07T08:36:24;51.40;;;26.27;;
60352;SDS011;46196;52.970;6.954;2023-05-07T08:38:50;45.38;;;22.17;;
60352;SDS011;46196;52.970;6.954;2023-05-07T08:41:17;47.20;;;24.27;;
60352;SDS011;46196;52.970;6.954;2023-05-07T08:43:43;47.22;;;24.02;;
60352;SDS011;46196;52.970;6.954;2023-05-07T08:46:18;50.38;;;25.05;;
60352;SDS011;46196;52.970;6.954;2023-05-07T08:48:47;45.92;;;23.60;;
60352;SDS011;46196;52.970;6.954;2023-05-07T08:51:15;47.13;;;22.77;;
60352;SDS011;46196;52.970;6.954;2023-05-07T08:53:43;53.37;;;24.80;;
60352;SDS011;46196;52.970;6.954;2023-05-07T08:56:11;44.63;;;22.55;;
60352;SDS011;46196;52.970;6.954;2023-05-07T08:58:37;44.60;;;23.33;;
60352;SDS011;46196;52.970;6.954;2023-05-07T09:01:03;42.50;;;24.13;;
60352;SDS011;46196;52.970;6.954;2023-05-07T09:03:33;46.47;;;23.27;;
60352;SDS011;46196;52.970;6.954;2023-05-07T09:05:59;51.40;;;25.17;;
60352;SDS011;46196;52.970;6.954;2023-05-07T09:08:25;41.75;;;22.15;;
60352;SDS011;46196;52.970;6.954;2023-05-07T09:10:52;43.80;;;22.30;;
60352;SDS011;46196;52.970;6.954;2023-05-07T09:13:19;42.17;;;22.65;;
60352;SDS011;46196;52.970;6.954;2023-05-07T09:15:44;42.75;;;22.60;;
60352;SDS011;46196;52.970;6.954;2023-05-07T09:18:10;41.75;;;22.92;;
60352;SDS011;46196;52.970;6.954;2023-05-07T09:20:37;46.65;;;23.42;;
60352;SDS011;46196;52.970;6.954;2023-05-07T09:23:04;42.75;;;21.67;;
60352;SDS011;46196;52.970;6.954;2023-05-07T09:25:32;48.63;;;23.92;;
60352;SDS011;46196;52.970;6.954;2023-05-07T09:27:59;48.28;;;23.77;;
60352;SDS011;46196;52.970;6.954;2023-05-07T09:30:29;43.60;;;22.90;;
60352;SDS011;46196;52.970;6.954;2023-05-07T09:32:56;42.35;;;22.40;;
60352;SDS011;46196;52.970;6.954;2023-05-07T09:35:26;44.03;;;23.80;;
60352;SDS011;46196;52.970;6.954;2023-05-07T09:37:55;45.58;;;25.17;;
60352;SDS011;46196;52.970;6.954;2023-05-07T09:40:24;43.80;;;23.75;;
60352;SDS011;46196;52.970;6.954;2023-05-07T09:42:51;43.38;;;22.67;;
60352;SDS011;46196;52.970;6.954;2023-05-07T09:45:29;42.40;;;21.20;;
60352;SDS011;46196;52.970;6.954;2023-05-07T09:47:56;49.10;;;24.75;;
60352;SDS011;46196;52.970;6.954;2023-05-07T09:50:26;41.72;;;22.10;;
60352;SDS011;46196;52.970;6.954;2023-05-07T09:53:01;39.47;;;21.40;;
60352;SDS011;46196;52.970;6.954;2023-05-07T09:55:28;44.72;;;23.33;;
60352;SDS011;46196;52.970;6.954;2023-05-07T09:57:54;38.88;;;20.60;;
60352;SDS011;46196;52.970;6.954;2023-05-07T10:00:21;38.15;;;21.77;;
60352;SDS011;46196;52.970;6.954;2023-05-07T10:02:51;36.67;;;22.23;;
60352;SDS011;46196;52.970;6.954;2023-05-07T10:05:18;40.35;;;22.63;;
60352;SDS011;46196;52.970;6.954;2023-05-07T10:07:48;36.90;;;21.30;;
60352;SDS011;46196;52.970;6.954;2023-05-07T10:10:14;40.25;;;23.15;;
60352;SDS011;46196;52.970;6.954;2023-05-07T10:12:41;39.78;;;22.55;;
60352;SDS011;46196;52.970;6.954;2023-05-07T10:15:10;38.05;;;21.67;;
60352;SDS011;46196;52.970;6.954;2023-05-07T10:17:39;39.35;;;21.73;;
60352;SDS011;46196;52.970;6.954;2023-05-07T10:20:06;37.20;;;21.83;;
60352;SDS011;46196;52.970;6.954;2023-05-07T10:22:37;40.15;;;21.27;;
60352;SDS011;46196;52.970;6.954;2023-05-07T10:25:06;40.90;;;21.65;;
60352;SDS011;46196;52.970;6.954;2023-05-07T10:27:42;34.83;;;21.55;;
60352;SDS011;46196;52.970;6.954;2023-05-07T10:30:22;35.33;;;21.58;;
60352;SDS011;46196;52.970;6.954;2023-05-07T10:33:01;36.05;;;20.60;;
60352;SDS011;46196;52.970;6.954;2023-05-07T10:35:31;35.90;;;20.90;;
60352;SDS011;46196;52.970;6.954;2023-05-07T10:38:03;35.53;;;21.65;;
60352;SDS011;46196;52.970;6.954;2023-05-07T10:40:30;36.20;;;22.02;;
60352;SDS011;46196;52.970;6.954;2023-05-07T10:43:00;34.08;;;21.27;;
60352;SDS011;46196;52.970;6.954;2023-05-07T10:45:27;39.05;;;23.25;;
60352;SDS011;46196;52.970;6.954;2023-05-07T10:48:07;34.17;;;19.63;;
60352;SDS011;46196;52.970;6.954;2023-05-07T10:50:36;36.15;;;21.15;;
60352;SDS011;46196;52.970;6.954;2023-05-07T10:55:47;34.42;;;20.63;;
60352;SDS011;46196;52.970;6.954;2023-05-07T10:58:23;34.15;;;20.33;;
60352;SDS011;46196;52.970;6.954;2023-05-07T11:01:01;33.28;;;20.35;;
60352;SDS011;46196;52.970;6.954;2023-05-07T11:03:27;33.63;;;20.85;;
60352;SDS011;46196;52.970;6.954;2023-05-07T11:14:13;33.75;;;20.20;;
60352;SDS011;46196;52.970;6.954;2023-05-07T11:17:03;32.88;;;20.50;;
60352;SDS011;46196;52.970;6.954;2023-05-07T11:25:05;32.15;;;20.65;;
60352;SDS011;46196;52.970;6.954;2023-05-07T11:27:31;36.80;;;21.75;;
60352;SDS011;46196;52.970;6.954;2023-05-07T11:29:58;35.47;;;20.95;;
60352;SDS011;46196;52.970;6.954;2023-05-07T11:32:24;34.10;;;20.90;;
60352;SDS011;46196;52.970;6.954;2023-05-07T11:34:51;34.33;;;21.05;;
60352;SDS011;46196;52.970;6.954;2023-05-07T11:37:18;35.72;;;21.60;;
60352;SDS011;46196;52.970;6.954;2023-05-07T11:39:45;30.42;;;19.90;;
60352;SDS011;46196;52.970;6.954;2023-05-07T11:42:29;38.35;;;22.58;;
60352;SDS011;46196;52.970;6.954;2023-05-07T11:44:56;34.92;;;20.77;;
60352;SDS011;46196;52.970;6.954;2023-05-07T11:47:22;34.88;;;21.05;;
60352;SDS011;46196;52.970;6.954;2023-05-07T11:49:48;35.28;;;21.30;;
60352;SDS011;46196;52.970;6.954;2023-05-07T11:52:15;34.28;;;20.15;;
60352;SDS011;46196;52.970;6.954;2023-05-07T11:54:48;36.20;;;21.73;;
60352;SDS011;46196;52.970;6.954;2023-05-07T11:57:18;32.75;;;21.35;;
60352;SDS011;46196;52.970;6.954;2023-05-07T11:59:44;32.50;;;19.60;;
60352;SDS011;46196;52.970;6.954;2023-05-07T12:02:14;31.77;;;21.02;;
60352;SDS011;46196;52.970;6.954;2023-05-07T12:04:40;30.48;;;20.58;;
60352;SDS011;46196;52.970;6.954;2023-05-07T12:07:16;31.98;;;20.88;;
60352;SDS011;46196;52.970;6.954;2023-05-07T12:09:43;32.28;;;20.80;;
60352;SDS011;46196;52.970;6.954;2023-05-07T12:12:09;30.52;;;20.20;;
60352;SDS011;46196;52.970;6.954;2023-05-07T12:14:39;28.83;;;20.38;;
60352;SDS011;46196;52.970;6.954;2023-05-07T12:17:06;29.00;;;20.23;;
60352;SDS011;46196;52.970;6.954;2023-05-07T12:19:33;30.92;;;20.40;;
60352;SDS011;46196;52.970;6.954;2023-05-07T12:21:59;34.05;;;20.98;;
60352;SDS011;46196;52.970;6.954;2023-05-07T12:24:26;30.33;;;20.75;;
60352;SDS011;46196;52.970;6.954;2023-05-07T12:26:52;31.25;;;20.95;;
60352;SDS011;46196;52.970;6.954;2023-05-07T12:29:21;29.55;;;19.92;;
60352;SDS011;46196;52.970;6.954;2023-05-07T12:31:47;35.75;;;21.73;;
60352;SDS011;46196;52.970;6.954;2023-05-07T12:34:15;31.10;;;20.13;;
60352;SDS011;46196;52.970;6.954;2023-05-07T12:36:41;30.35;;;20.15;;
60352;SDS011;46196;52.970;6.954;2023-05-07T12:39:07;28.13;;;19.40;;
60352;SDS011;46196;52.970;6.954;2023-05-07T12:41:55;30.17;;;19.25;;
60352;SDS011;46196;52.970;6.954;2023-05-07T12:44:32;28.75;;;18.75;;
60352;SDS011;46196;52.970;6.954;2023-05-07T12:47:01;27.83;;;19.30;;
60352;SDS011;46196;52.970;6.954;2023-05-07T12:49:27;29.00;;;20.00;;
60352;SDS011;46196;52.970;6.954;2023-05-07T12:51:53;28.27;;;19.42;;
60352;SDS011;46196;52.970;6.954;2023-05-07T12:54:29;27.48;;;20.17;;
60352;SDS011;46196;52.970;6.954;2023-05-07T12:57:02;29.90;;;19.77;;
60352;SDS011;46196;52.970;6.954;2023-05-07T12:59:32;27.38;;;18.35;;
60352;SDS011;46196;52.970;6.954;2023-05-07T13:02:05;26.30;;;17.92;;
60352;SDS011;46196;52.970;6.954;2023-05-07T13:04:31;26.42;;;18.45;;
60352;SDS011;46196;52.970;6.954;2023-05-07T13:06:57;25.67;;;18.05;;
60352;SDS011;46196;52.970;6.954;2023-05-07T13:09:23;27.48;;;19.25;;
60352;SDS011;46196;52.970;6.954;2023-05-07T13:11:49;24.02;;;17.95;;
60352;SDS011;46196;52.970;6.954;2023-05-07T13:14:14;24.02;;;17.88;;
60352;SDS011;46196;52.970;6.954;2023-05-07T13:16:40;25.08;;;17.88;;
60352;SDS011;46196;52.970;6.954;2023-05-07T13:19:06;26.50;;;18.00;;
60352;SDS011;46196;52.970;6.954;2023-05-07T13:21:32;25.08;;;17.83;;
60352;SDS011;46196;52.970;6.954;2023-05-07T13:23:58;23.67;;;18.50;;
60352;SDS011;46196;52.970;6.954;2023-05-07T13:26:24;29.30;;;19.05;;
60352;SDS011;46196;52.970;6.954;2023-05-07T13:28:50;25.48;;;18.88;;
60352;SDS011;46196;52.970;6.954;2023-05-07T13:31:17;24.73;;;18.02;;
60352;SDS011;46196;52.970;6.954;2023-05-07T13:33:43;25.80;;;18.35;;
60352;SDS011;46196;52.970;6.954;2023-05-07T13:36:08;25.15;;;17.42;;
60352;SDS011;46196;52.970;6.954;2023-05-07T13:38:34;24.10;;;17.67;;
60352;SDS011;46196;52.970;6.954;2023-05-07T13:41:00;31.50;;;17.85;;
60352;SDS011;46196;52.970;6.954;2023-05-07T13:43:26;23.65;;;17.73;;
60352;SDS011;46196;52.970;6.954;2023-05-07T13:45:52;22.42;;;17.25;;
60352;SDS011;46196;52.970;6.954;2023-05-07T13:48:18;23.05;;;17.27;;
60352;SDS011;46196;52.970;6.954;2023-05-07T13:50:43;25.20;;;17.90;;
60352;SDS011;46196;52.970;6.954;2023-05-07T13:53:09;24.35;;;17.23;;
60352;SDS011;46196;52.970;6.954;2023-05-07T13:55:35;27.15;;;18.92;;
60352;SDS011;46196;52.970;6.954;2023-05-07T13:58:01;25.67;;;18.05;;
60352;SDS011;46196;52.970;6.954;2023-05-07T14:00:28;25.20;;;17.33;;
60352;SDS011;46196;52.970;6.954;2023-05-07T14:02:54;27.38;;;18.27;;
60352;SDS011;46196;52.970;6.954;2023-05-07T14:05:21;23.45;;;16.95;;
60352;SDS011;46196;52.970;6.954;2023-05-07T14:07:52;25.58;;;18.10;;
60352;SDS011;46196;52.970;6.954;2023-05-07T14:10:20;24.87;;;17.97;;
60352;SDS011;46196;52.970;6.954;2023-05-07T14:12:46;25.75;;;17.40;;
60352;SDS011;46196;52.970;6.954;2023-05-07T14:15:12;23.90;;;17.80;;
60352;SDS011;46196;52.970;6.954;2023-05-07T14:17:37;25.52;;;18.10;;
60352;SDS011;46196;52.970;6.954;2023-05-07T14:20:04;26.52;;;18.70;;
60352;SDS011;46196;52.970;6.954;2023-05-07T14:22:31;24.65;;;18.60;;
60352;SDS011;46196;52.970;6.954;2023-05-07T14:24:57;29.20;;;20.17;;
60352;SDS011;46196;52.970;6.954;2023-05-07T14:27:23;28.23;;;20.20;;
60352;SDS011;46196;52.970;6.954;2023-05-07T14:29:48;27.90;;;19.65;;
60352;SDS011;46196;52.970;6.954;2023-05-07T14:32:18;26.02;;;18.48;;
60352;SDS011;46196;52.970;6.954;2023-05-07T14:34:44;27.08;;;19.45;;